Alpha, Washington
Current Conditions -  °F | °C
As of 1:15 AM on Thursday 27 Nov 2014 (Local Time) from KCLS Reporting Station
NA  
Wind Chill: 57°   Ceiling: NA
Heat Index: 57°   Visibility: 10mi
Dew Point: 48°   Wind: 10mph
Humidity: 72%   Direction: 210°SSW
Pressure: 29.91"   Gusts: 17mph
Location:  46.5995°N, 122.665°W
Report Text: KCLS 270915Z AUTO 21009G15KT 10SM 14/09 A2991 RMK AO2
Loading
Personal Weather Stations






























Interactive Weather Map New forecast layout! Learn more

10-Day Weather Forecast

Advertisements
Track Severe Weather on mobile